KELZ/ELZ METAR and TAF weather

Enter ICAO airport designator
Station Type Date Time Source
KELZ METAR 2021/02/24 16:56 UTC NOAA

KELZ 241656Z AUTO 20015G23KT 170V230 10SM CLR 09/M03 A2975 RMK AO2 PK WND 20027/1617 PRESFR SLP087 T00891033


Station Type Date Time Source
KELZ Decoded METAR 2021/02/24 16:56 UTC NOAA

WELLSVILLE MUNICIPAL AIRPORT, NY, United States (KELZ) 42-06N 077-60W 646M
Feb 24, 2021 - 11:56 AM EST / 2021.02.24 1656 UTC
Wind: from the SSW (200 degrees) at 17 MPH (15 KT) gusting to 26 MPH (23 KT) (direction variable):0
Visibility: 10 mile(s):0
Sky conditions: clear
Temperature: 48.0 F (8.9 C)
Dew Point: 26.1 F (-3.3 C)
Relative Humidity: 42%
Pressure (altimeter): 29.75 in. Hg (1007 hPa)
Pressure tendency: falling rapidly
ob: KELZ 241656Z AUTO 20015G23KT 170V230 10SM CLR 09/M03 A2975 RMK AO2 PK WND 20027/1617 PRESFR SLP087 T00891033
cycle: 17

Station Type Date Time Source
KELZ TAF UTC NOAA

Error!

Example: see airport list